Avalon, California
Current Conditions -  °F | °C
As of 3:53 PM on Thursday 27 Nov 2014 (Local Time) from KLGB Reporting Station
Clear Clear  
Wind Chill: 28°   Ceiling: Unl
Heat Index: 28°   Visibility: 10mi
Dew Point:   Wind: 8mph
Humidity: 18%   Direction: 280°W
Pressure: 29.99"   Gusts: NA
Location:  33.34°N, 118.33°W
Report Text: KLGB 272353Z 28007KT 10SM CLR 28/02 A2999 RMK AO2 SLP154 T02830017 10322 20239 56011
Loading
Personal Weather Stations






























Interactive Weather Map New forecast layout! Learn more

10-Day Weather Forecast

Advertisements
Track Severe Weather on mobile